Time;durP1;ratioP1;P1;durP2;ratioP2;P2;SDS_P1;SDS_P2;PMS_P1;PMS_P2;Temp;Humidity;BMP_temperature;BMP_pressure;BME280_temperature;BME280_humidity;BME280_pressure;Samples;Min_cycle;Max_cycle;Signal;HPM_P1;HPM_P2
2022/07/08 00:02:00;;;;;;;2.80;1.83;;;;;;;17.22;72.21;99903.63;4341005;32;34650;-74
2022/07/08 00:04:46;;;;;;;6.03;2.90;;;;;;;16.73;74.27;99900.84;4343227;32;35032;-74
2022/07/08 00:07:33;;;;;;;6.25;2.08;;;;;;;16.43;76.77;99898.31;4358356;32;34895;-74
2022/07/08 00:10:21;;;;;;;8.15;2.28;;;;;;;16.32;78.02;99900.72;4355063;32;35511;-74
2022/07/08 00:13:07;;;;;;;3.08;2.20;;;;;;;16.16;79.24;99902.50;4357310;32;34273;-73
2022/07/08 00:15:53;;;;;;;6.15;2.00;;;;;;;16.15;78.86;99903.66;4356644;32;34768;-74
2022/07/08 00:18:40;;;;;;;4.43;2.17;;;;;;;16.11;79.81;99891.69;4351933;32;35710;-74
2022/07/08 00:21:26;;;;;;;5.00;2.28;;;;;;;16.17;79.51;99893.09;4345826;32;33729;-74
2022/07/08 00:24:13;;;;;;;3.72;2.25;;;;;;;15.80;81.37;99895.75;4349721;32;34330;-74
2022/07/08 00:27:00;;;;;;;5.95;2.20;;;;;;;15.72;82.38;99908.47;4357095;32;34706;-73
2022/07/08 00:29:46;;;;;;;6.28;2.17;;;;;;;16.02;80.64;99905.59;4356611;32;34932;-74
2022/07/08 00:32:35;;;;;;;3.12;2.20;;;;;;;16.27;79.80;99908.41;4358172;32;35205;-74
2022/07/08 00:35:21;;;;;;;6.32;2.40;;;;;;;16.61;77.55;99902.47;4342444;32;33619;-73
2022/07/08 00:38:08;;;;;;;4.70;2.53;;;;;;;16.52;77.86;99898.22;4356286;32;34961;-73
2022/07/08 00:40:54;;;;;;;5.55;2.30;;;;;;;15.82;81.43;99887.09;4357223;32;34802;-73
2022/07/08 00:43:42;;;;;;;4.40;2.35;;;;;;;15.76;82.48;99888.47;4357711;32;34427;-74
2022/07/08 00:46:28;;;;;;;5.80;2.47;;;;;;;15.94;82.21;99890.72;4357251;32;35702;-74
2022/07/08 00:49:15;;;;;;;5.07;2.47;;;;;;;15.57;84.55;99887.00;4356477;32;34918;-74
2022/07/08 00:52:01;;;;;;;4.78;2.58;;;;;;;15.66;84.22;99889.66;4348163;32;35657;-74
2022/07/08 00:54:48;;;;;;;3.70;2.40;;;;;;;15.59;85.08;99883.88;4356816;32;35341;-74
2022/07/08 00:57:35;;;;;;;3.72;2.22;;;;;;;15.69;84.44;99881.53;4346416;32;35701;-74
2022/07/08 01:00:21;;;;;;;3.53;2.37;;;;;;;15.78;83.81;99883.41;4345862;32;35017;-74
2022/07/08 01:03:08;;;;;;;5.03;2.30;;;;;;;15.72;84.36;99883.62;4341053;32;35678;-76
2022/07/08 01:05:54;;;;;;;3.65;2.37;;;;;;;15.71;83.94;99887.53;4357282;32;34435;-73
2022/07/08 01:08:40;;;;;;;4.10;2.15;;;;;;;15.78;83.87;99886.97;4356308;32;34719;-74
2022/07/08 01:11:27;;;;;;;6.28;2.28;;;;;;;15.75;83.81;99879.37;4341962;32;35453;-73
2022/07/08 01:14:15;;;;;;;6.12;2.30;;;;;;;15.62;84.82;99884.00;4344203;32;34827;-73
2022/07/08 01:17:01;;;;;;;4.90;2.35;;;;;;;15.59;85.15;99878.34;4342623;32;34128;-74
2022/07/08 01:19:47;;;;;;;6.78;2.78;;;;;;;15.67;84.75;99874.69;4356609;32;35694;-83
2022/07/08 01:22:33;;;;;;;3.17;2.45;;;;;;;15.69;84.98;99877.97;4356088;32;37952;-82
2022/07/08 01:25:20;;;;;;;4.53;2.55;;;;;;;15.57;84.91;99878.69;4354947;32;34954;-83
2022/07/08 01:28:06;;;;;;;4.75;2.50;;;;;;;15.47;85.74;99881.88;4345459;32;35001;-83
2022/07/08 01:30:53;;;;;;;4.43;2.60;;;;;;;15.47;86.05;99884.63;4345710;32;35457;-83
2022/07/08 01:33:39;;;;;;;4.05;2.40;;;;;;;15.46;86.67;99881.06;4356779;32;36066;-82
2022/07/08 01:36:25;;;;;;;6.22;2.78;;;;;;;15.14;88.90;99874.34;4334062;32;35628;-83
2022/07/08 01:39:11;;;;;;;3.92;2.55;;;;;;;15.25;88.63;99881.06;4340415;32;34460;-82
2022/07/08 01:41:58;;;;;;;5.15;2.87;;;;;;;15.30;88.65;99871.78;4340454;32;35635;-82
2022/07/08 01:44:44;;;;;;;5.82;2.72;;;;;;;15.18;89.17;99874.47;4337508;32;34642;-82
2022/07/08 01:47:30;;;;;;;3.83;2.30;;;;;;;15.46;87.34;99870.00;4354324;32;34823;-83
2022/07/08 01:50:17;;;;;;;5.93;2.60;;;;;;;15.79;85.25;99866.47;4338691;32;34874;-82
2022/07/08 01:53:03;;;;;;;4.43;2.50;;;;;;;15.65;85.95;99872.28;4357441;32;34286;-82
2022/07/08 01:55:50;;;;;;;3.87;2.20;;;;;;;15.71;85.93;99868.19;4358168;32;37722;-83
2022/07/08 01:58:36;;;;;;;3.67;2.30;;;;;;;15.78;85.44;99872.34;4358577;32;34995;-83
2022/07/08 02:01:23;;;;;;;4.78;2.65;;;;;;;15.74;85.23;99875.81;4346189;32;34172;-83
2022/07/08 02:04:12;;;;;;;5.07;2.83;;;;;;;15.92;84.36;99872.88;4353422;32;34639;-83
2022/07/08 02:06:58;;;;;;;3.33;2.45;;;;;;;15.47;87.38;99865.28;4350083;32;36068;-83
2022/07/08 02:09:44;;;;;;;3.92;2.20;;;;;;;15.24;88.59;99879.44;4336308;32;34610;-83
2022/07/08 02:12:30;;;;;;;4.10;3.37;;;;;;;15.76;85.93;99882.94;4343573;32;33919;-82
2022/07/08 02:15:17;;;;;;;2.78;2.40;;;;;;;15.30;88.13;99880.84;4340963;32;34219;-82
2022/07/08 02:18:03;;;;;;;4.28;2.55;;;;;;;15.58;86.93;99877.53;4353775;32;35890;-83
2022/07/08 02:20:51;;;;;;;4.60;2.83;;;;;;;15.20;89.81;99884.03;4339811;32;34863;-82
2022/07/08 02:23:37;;;;;;;5.07;2.70;;;;;;;15.29;88.90;99884.75;4346143;32;35262;-82
2022/07/08 02:26:23;;;;;;;7.65;2.83;;;;;;;15.49;87.88;99885.91;4347707;32;34387;-83
2022/07/08 02:29:10;;;;;;;4.97;2.42;;;;;;;15.38;88.85;99881.13;4354400;32;35924;-83
2022/07/08 02:31:56;;;;;;;4.10;2.40;;;;;;;15.48;87.73;99891.75;4346710;32;34969;-83
2022/07/08 02:34:42;;;;;;;7.90;2.25;;;;;;;15.59;87.36;99883.88;4344892;32;35013;-83
2022/07/08 02:37:29;;;;;;;6.07;2.55;;;;;;;15.47;88.93;99899.22;4354418;32;34118;-83
2022/07/08 02:40:15;;;;;;;3.90;2.55;;;;;;;15.49;88.75;99901.66;4350066;32;33988;-83
2022/07/08 02:43:02;;;;;;;4.95;2.55;;;;;;;15.24;89.99;99895.19;4348365;32;34879;-82
2022/07/08 02:45:48;;;;;;;6.35;2.62;;;;;;;15.42;89.05;99895.88;4352401;32;35348;-83
2022/07/08 02:48:34;;;;;;;4.90;2.70;;;;;;;15.49;88.32;99898.91;4347184;32;35322;-83
2022/07/08 02:51:21;;;;;;;4.37;2.40;;;;;;;14.95;91.98;99902.37;4347103;32;34940;-83
2022/07/08 02:54:07;;;;;;;4.43;3.00;;;;;;;15.22;90.11;99898.28;4343679;32;34457;-83
2022/07/08 02:56:53;;;;;;;3.67;2.40;;;;;;;15.44;89.23;99899.09;4333379;32;34311;-82
2022/07/08 02:59:40;;;;;;;3.80;2.40;;;;;;;15.73;86.80;99901.00;4353816;32;34697;-83
2022/07/08 03:02:26;;;;;;;5.32;2.53;;;;;;;15.59;86.81;99901.25;4345780;32;34931;-83
2022/07/08 03:05:12;;;;;;;3.85;2.50;;;;;;;15.70;86.26;99902.47;4357617;32;34919;-83
2022/07/08 03:07:58;;;;;;;3.62;2.33;;;;;;;15.38;88.96;99900.47;4358339;32;35747;-82
2022/07/08 03:10:45;;;;;;;5.00;2.20;;;;;;;15.37;88.82;99894.13;4345008;32;34732;-84
2022/07/08 03:13:31;;;;;;;5.82;2.67;;;;;;;15.51;87.44;99891.06;4347678;32;35009;-83
2022/07/08 03:16:18;;;;;;;5.18;2.83;;;;;;;15.33;88.94;99895.13;4339057;32;35695;-82
2022/07/08 03:19:04;;;;;;;4.05;2.58;;;;;;;15.21;89.85;99895.88;4342449;32;33019;-83
2022/07/08 03:21:50;;;;;;;4.85;2.55;;;;;;;15.27;90.23;99906.38;4358939;32;35567;-83
2022/07/08 03:24:37;;;;;;;5.05;2.47;;;;;;;15.06;91.08;99900.84;4356560;32;36579;-83
2022/07/08 03:27:23;;;;;;;3.55;2.58;;;;;;;15.28;89.45;99896.97;4357980;32;34646;-83
2022/07/08 03:30:10;;;;;;;5.43;2.40;;;;;;;14.89;92.09;99905.66;4358031;32;34340;-83
2022/07/08 03:32:56;;;;;;;5.62;2.40;;;;;;;15.23;90.02;99915.69;4347241;32;34663;-83
2022/07/08 03:35:42;;;;;;;2.70;2.28;;;;;;;15.28;90.00;99899.72;4356113;32;35601;-81
2022/07/08 03:38:29;;;;;;;3.75;2.30;;;;;;;15.39;89.36;99907.59;4346926;32;35275;-82
2022/07/08 03:41:24;;;;;;;3.17;2.10;;;;;;;15.12;90.27;99904.22;4340041;32;34350;-82
2022/07/08 03:44:11;;;;;;;4.30;2.30;;;;;;;15.42;89.82;99915.19;4357837;32;34616;-82
2022/07/08 03:46:58;;;;;;;4.05;2.53;;;;;;;15.27;89.61;99905.56;4358243;32;34505;-84
2022/07/08 03:49:44;;;;;;;4.10;2.30;;;;;;;15.19;90.09;99898.97;4356943;32;34999;-83
2022/07/08 03:52:30;;;;;;;3.03;2.42;;;;;;;15.44;88.86;99899.09;4357939;32;35295;-84
2022/07/08 03:55:17;;;;;;;4.70;2.15;;;;;;;15.69;86.82;99898.09;4342950;32;34054;-83
2022/07/08 03:58:03;;;;;;;2.67;2.10;;;;;;;15.44;88.24;99908.19;4355933;32;34487;-82
2022/07/08 04:00:49;;;;;;;5.00;2.33;;;;;;;15.54;88.05;99915.28;4356613;32;34946;-83
2022/07/08 04:03:35;;;;;;;4.82;2.10;;;;;;;15.13;91.11;99916.84;4355786;32;34248;-82
2022/07/08 04:06:22;;;;;;;9.25;2.62;;;;;;;15.29;89.23;99906.84;4343945;32;33935;-83
2022/07/08 04:09:08;;;;;;;3.35;2.42;;;;;;;15.57;88.55;99911.84;4355119;32;35017;-83
2022/07/08 04:11:54;;;;;;;3.55;2.42;;;;;;;15.47;88.89;99915.00;4357539;32;34734;-83
2022/07/08 04:14:41;;;;;;;3.12;2.20;;;;;;;15.93;86.16;99916.72;4356357;32;34117;-84
2022/07/08 04:17:27;;;;;;;4.32;2.58;;;;;;;16.03;85.54;99915.50;4357931;32;34256;-85
2022/07/08 04:20:14;;;;;;;3.15;2.12;;;;;;;15.64;87.33;99923.13;4345774;32;34459;-83
2022/07/08 04:23:00;;;;;;;4.00;2.22;;;;;;;15.74;86.86;99925.53;4349315;32;34849;-83
2022/07/08 04:25:46;;;;;;;3.50;2.58;;;;;;;15.99;86.00;99919.28;4357288;32;33894;-83
2022/07/08 04:28:33;;;;;;;4.72;2.62;;;;;;;15.93;86.79;99918.69;4355568;32;35519;-84
2022/07/08 04:31:19;;;;;;;3.72;2.45;;;;;;;15.45;89.09;99920.88;4354790;32;35003;-83
2022/07/08 04:34:06;;;;;;;5.28;2.62;;;;;;;15.37;89.97;99915.38;4356476;32;35727;-83
2022/07/08 04:36:52;;;;;;;5.07;2.75;;;;;;;15.68;87.34;99926.88;4357856;32;34332;-80
2022/07/08 04:39:39;;;;;;;3.58;2.53;;;;;;;15.40;89.63;99931.31;4355727;32;35168;-84
2022/07/08 04:42:25;;;;;;;4.82;2.78;;;;;;;15.59;89.09;99928.06;4353416;32;34737;-82
2022/07/08 04:45:11;;;;;;;5.60;3.08;;;;;;;16.29;85.05;99929.03;4354317;32;35842;-82
2022/07/08 04:47:58;;;;;;;7.03;2.90;;;;;;;16.21;85.30;99927.19;4355870;32;35261;-84
2022/07/08 04:50:44;;;;;;;4.47;2.60;;;;;;;15.98;86.50;99926.75;4353318;32;34379;-83
2022/07/08 04:53:30;;;;;;;8.20;2.70;;;;;;;15.86;86.87;99943.31;4352065;32;34982;-82
2022/07/08 04:56:17;;;;;;;5.40;2.58;;;;;;;15.90;87.65;99938.72;4353169;32;35882;-81
2022/07/08 04:59:03;;;;;;;4.45;2.85;;;;;;;16.00;86.94;99937.50;4356338;32;35071;-81
2022/07/08 05:01:49;;;;;;;5.32;2.70;;;;;;;16.04;86.37;99932.87;4356338;32;35658;-80
2022/07/08 05:04:36;;;;;;;3.83;2.58;;;;;;;16.03;86.08;99937.63;4354267;32;35970;-82
2022/07/08 05:07:22;;;;;;;5.60;2.67;;;;;;;15.94;87.01;99934.13;4355043;32;34651;-83
2022/07/08 05:10:09;;;;;;;6.18;2.95;;;;;;;15.90;87.63;99933.19;4356580;32;34880;-83
2022/07/08 05:12:55;;;;;;;3.53;2.22;;;;;;;16.12;86.20;99938.31;4353771;32;34527;-82
2022/07/08 05:15:42;;;;;;;4.60;2.65;;;;;;;16.53;84.55;99950.41;4346697;32;34906;-83
2022/07/08 05:18:28;;;;;;;4.25;2.28;;;;;;;16.58;83.50;99939.13;4340163;32;35370;-81
2022/07/08 05:21:15;;;;;;;7.85;2.80;;;;;;;16.21;85.47;99945.72;4354219;32;35231;-79
2022/07/08 05:24:02;;;;;;;7.45;2.40;;;;;;;16.34;85.57;99941.84;4357078;32;34692;-83
2022/07/08 05:26:48;;;;;;;4.30;2.50;;;;;;;16.36;85.05;99956.97;4344724;32;35904;-81
2022/07/08 05:29:34;;;;;;;4.78;2.30;;;;;;;16.12;85.65;99956.88;4356451;32;34940;-82
2022/07/08 05:32:20;;;;;;;4.78;2.47;;;;;;;16.48;84.68;99950.66;4341233;32;34356;-75
2022/07/08 05:35:07;;;;;;;4.15;2.53;;;;;;;16.37;85.15;99957.75;4357175;32;34758;-75
2022/07/08 05:37:54;;;;;;;5.47;2.60;;;;;;;16.61;83.58;99968.84;4356765;32;35953;-75
2022/07/08 05:40:40;;;;;;;4.93;3.20;;;;;;;16.96;81.59;99974.00;4356274;32;34876;-74
2022/07/08 05:43:27;;;;;;;3.85;2.85;;;;;;;17.22;80.11;99973.66;4351070;32;34379;-74
2022/07/08 05:46:13;;;;;;;3.03;2.42;;;;;;;16.87;81.35;99970.53;4356172;32;34755;-74
2022/07/08 05:48:59;;;;;;;6.22;2.50;;;;;;;17.26;79.34;99979.31;4355670;32;35844;-74
2022/07/08 05:51:45;;;;;;;4.62;2.40;;;;;;;17.73;76.94;99979.56;4355935;32;35856;-75
2022/07/08 05:54:32;;;;;;;6.60;3.10;;;;;;;17.71;77.04;99984.66;4355167;32;34360;-75
2022/07/08 05:57:18;;;;;;;5.60;2.80;;;;;;;17.69;76.98;99983.38;4353581;32;34673;-75
2022/07/08 06:00:06;;;;;;;4.55;2.90;;;;;;;17.67;76.63;99991.22;4353274;32;33886;-79
2022/07/08 06:02:57;;;;;;;4.70;2.45;;;;;;;17.57;76.88;100003.63;4354845;32;34847;-76
2022/07/08 06:05:43;;;;;;;3.85;2.67;;;;;;;17.62;76.83;99989.53;4356834;32;34464;-76
2022/07/08 06:08:30;;;;;;;4.30;2.85;;;;;;;17.77;76.18;99993.53;4355171;32;34596;-76
2022/07/08 06:11:17;;;;;;;4.45;2.65;;;;;;;18.08;74.22;99983.75;4352252;32;35661;-76
2022/07/08 06:14:04;;;;;;;4.75;2.58;;;;;;;18.35;73.04;99991.22;4345508;32;34455;-76
2022/07/08 06:16:50;;;;;;;3.60;2.33;;;;;;;17.98;74.42;99988.63;4341309;32;33090;-78
2022/07/08 06:19:37;;;;;;;3.75;2.53;;;;;;;17.82;75.23;99987.78;4354224;32;34664;-77
2022/07/08 06:22:23;;;;;;;3.45;2.30;;;;;;;18.28;73.43;99993.03;4353379;32;36492;-78
2022/07/08 06:25:09;;;;;;;3.83;2.50;;;;;;;18.35;72.76;99988.44;4355711;32;34965;-77
2022/07/08 06:27:56;;;;;;;4.68;2.20;;;;;;;18.68;72.03;99990.12;4353917;32;34364;-78
2022/07/08 06:30:42;;;;;;;3.55;2.30;;;;;;;18.78;70.69;99995.16;4355865;32;35205;-78
2022/07/08 06:33:29;;;;;;;3.35;2.20;;;;;;;18.85;69.08;99997.34;4355164;32;34437;-77
2022/07/08 06:36:15;;;;;;;4.20;2.17;;;;;;;19.04;68.25;100002.16;4356161;32;35504;-79
2022/07/08 06:39:01;;;;;;;4.18;2.62;;;;;;;19.04;68.11;100007.69;4346911;32;34446;-78
2022/07/08 06:41:49;;;;;;;3.60;2.17;;;;;;;19.05;68.27;100003.78;4347555;32;34648;-78
2022/07/08 06:44:35;;;;;;;3.78;2.17;;;;;;;19.16;67.49;99996.50;4358797;32;35978;-78
2022/07/08 06:47:22;;;;;;;2.87;2.10;;;;;;;19.45;66.35;99999.97;4357047;32;33424;-78
2022/07/08 06:50:09;;;;;;;4.70;2.10;;;;;;;19.28;66.41;99995.59;4343221;32;34535;-77
2022/07/08 06:52:56;;;;;;;4.20;2.00;;;;;;;19.81;65.04;99995.19;4357495;32;34674;-77
2022/07/08 06:55:42;;;;;;;4.05;2.03;;;;;;;19.94;64.41;99993.91;4358977;32;35644;-77
2022/07/08 06:58:29;;;;;;;2.92;1.87;;;;;;;20.07;63.42;99987.03;4358803;32;34358;-76
2022/07/08 07:01:17;;;;;;;3.50;2.05;;;;;;;20.71;60.08;99981.88;4344073;32;34145;-77
2022/07/08 07:04:03;;;;;;;4.60;2.10;;;;;;;20.42;61.39;99991.69;4358344;32;34592;-76
2022/07/08 07:06:50;;;;;;;3.55;2.10;;;;;;;20.08;63.51;99987.84;4346087;32;34955;-76
2022/07/08 07:09:36;;;;;;;3.87;2.30;;;;;;;20.47;62.52;99987.78;4348893;32;35714;-82
2022/07/08 07:12:22;;;;;;;5.65;2.70;;;;;;;20.48;61.58;99984.63;4357877;32;34955;-81
2022/07/08 07:15:09;;;;;;;7.75;2.53;;;;;;;20.08;62.54;99985.84;4358355;32;34447;-79
2022/07/08 07:17:55;;;;;;;3.00;2.30;;;;;;;20.32;62.68;99990.31;4358707;32;35059;-77
2022/07/08 07:20:42;;;;;;;3.30;2.30;;;;;;;20.39;61.81;99995.19;4358850;32;34892;-76
2022/07/08 07:23:29;;;;;;;4.85;2.70;;;;;;;20.70;61.81;99991.44;4345630;32;34039;-76
2022/07/08 07:26:15;;;;;;;3.55;2.78;;;;;;;20.93;59.21;99997.00;4358497;32;35694;-76
2022/07/08 07:29:03;;;;;;;7.03;2.17;;;;;;;20.90;59.68;99992.16;4357916;32;35012;-79
2022/07/08 07:31:50;;;;;;;3.33;1.90;;;;;;;21.03;59.44;99992.75;4346086;32;34810;-77
2022/07/08 07:34:36;;;;;;;5.22;2.28;;;;;;;21.14;59.10;99996.53;4358102;32;34450;-78
2022/07/08 07:37:23;;;;;;;3.10;2.03;;;;;;;21.17;59.24;100003.34;4359808;32;34609;-79
2022/07/08 07:40:09;;;;;;;3.22;2.37;;;;;;;21.63;56.91;99997.69;4358173;32;35008;-76
2022/07/08 07:42:55;;;;;;;3.65;2.20;;;;;;;21.38;57.55;99992.56;4354596;32;34926;-77
2022/07/08 07:45:44;;;;;;;3.35;2.05;;;;;;;21.59;56.72;99999.63;4355420;32;34942;-76
2022/07/08 07:48:30;;;;;;;5.62;1.90;;;;;;;22.01;55.27;100004.97;4357634;32;34471;-75
2022/07/08 07:51:17;;;;;;;2.17;1.80;;;;;;;22.38;53.28;100005.03;4346094;32;35922;-76
2022/07/08 07:54:04;;;;;;;3.97;2.35;;;;;;;22.47;53.95;99995.56;4345385;32;34612;-78
2022/07/08 07:56:50;;;;;;;3.05;2.20;;;;;;;22.54;53.19;99993.66;4356832;32;35243;-78
2022/07/08 07:59:36;;;;;;;3.65;2.28;;;;;;;22.67;52.27;99985.78;4354379;32;35653;-76
2022/07/08 08:02:23;;;;;;;3.20;2.22;;;;;;;22.77;52.52;99979.50;4354365;32;35026;-80
2022/07/08 08:05:10;;;;;;;5.25;2.50;;;;;;;22.54;52.19;99981.66;4353076;32;35531;-79
2022/07/08 08:07:56;;;;;;;3.85;2.12;;;;;;;23.24;51.11;99988.28;4346112;32;34756;-78
2022/07/08 08:10:43;;;;;;;3.83;2.10;;;;;;;22.85;51.45;99989.56;4345827;32;35553;-78
2022/07/08 08:13:29;;;;;;;3.72;2.05;;;;;;;22.82;49.20;99990.31;4348269;32;35038;-77
2022/07/08 08:16:16;;;;;;;2.47;1.90;;;;;;;23.53;47.85;99994.84;4338466;32;34843;-79
2022/07/08 08:19:02;;;;;;;3.53;2.47;;;;;;;23.80;47.77;99998.25;4346929;32;34935;-80
2022/07/08 08:21:48;;;;;;;5.30;1.90;;;;;;;24.09;46.64;99998.38;4347162;32;34763;-77
2022/07/08 08:24:34;;;;;;;3.37;2.28;;;;;;;24.36;44.94;99996.06;4350654;32;35129;-77
2022/07/08 08:27:20;;;;;;;6.20;2.40;;;;;;;24.87;43.29;99994.97;4351040;32;36176;-79
2022/07/08 08:30:09;;;;;;;3.97;2.90;;;;;;;24.85;42.39;99994.59;4352585;32;35232;-79
2022/07/08 08:32:56;;;;;;;6.43;2.10;;;;;;;24.57;42.69;100001.75;4344842;32;35532;-78
2022/07/08 08:35:42;;;;;;;5.05;1.95;;;;;;;24.98;41.70;99987.38;4343922;32;36311;-78
2022/07/08 08:38:28;;;;;;;2.87;2.12;;;;;;;25.35;42.23;99984.16;4342442;32;34386;-78
2022/07/08 08:41:15;;;;;;;3.15;2.40;;;;;;;25.42;40.91;99988.97;4356834;32;35386;-77
2022/07/08 08:44:02;;;;;;;4.00;2.30;;;;;;;24.84;41.32;99988.16;4353981;32;35544;-79
2022/07/08 08:46:49;;;;;;;3.97;2.60;;;;;;;24.92;42.14;99991.78;4356429;32;35028;-80
2022/07/08 08:49:35;;;;;;;3.08;2.47;;;;;;;23.75;44.12;99996.62;4332511;32;34608;-78
2022/07/08 08:52:24;;;;;;;2.85;2.05;;;;;;;24.03;44.65;100000.75;4343516;32;34299;-77
2022/07/08 08:55:11;;;;;;;4.03;2.20;;;;;;;24.06;44.00;99999.97;4346415;32;34631;-77
2022/07/08 08:58:07;;;;;;;4.05;2.40;;;;;;;23.52;43.30;100004.44;4340965;32;35670;-78
2022/07/08 09:00:54;;;;;;;6.53;2.30;;;;;;;23.71;44.02;100006.19;4345483;32;34426;-78
2022/07/08 09:03:40;;;;;;;5.25;3.03;;;;;;;24.28;41.64;100011.22;4354162;32;35358;-81
2022/07/08 09:06:27;;;;;;;4.85;2.20;;;;;;;23.96;43.34;100009.09;4345342;32;34303;-78
2022/07/08 09:09:13;;;;;;;7.22;2.40;;;;;;;23.97;43.76;100002.34;4351450;32;34606;-78
2022/07/08 09:12:16;;;;;;;3.62;2.35;;;;;;;24.59;41.85;99992.94;4356221;32;33913;-78
2022/07/08 09:15:04;;;;;;;2.53;2.10;;;;;;;24.14;41.94;100001.59;4357052;32;34973;-79
2022/07/08 09:17:51;;;;;;;2.65;2.20;;;;;;;25.18;41.05;100001.00;4357475;32;34792;-79
2022/07/08 09:20:48;;;;;;;4.35;2.60;;;;;;;25.18;40.21;100003.81;4344259;32;35014;-79
2022/07/08 09:23:39;;;;;;;4.00;2.30;;;;;;;25.05;41.29;99998.59;4343760;32;34545;-80
2022/07/08 09:26:26;;;;;;;5.10;2.50;;;;;;;24.98;40.75;99994.97;4346207;32;35159;-80
2022/07/08 09:29:13;;;;;;;5.25;2.05;;;;;;;24.68;41.07;99991.34;4341634;32;35522;-82
2022/07/08 09:32:14;;;;;;;3.05;2.08;;;;;;;24.92;39.20;100002.97;4357440;32;34908;-79
2022/07/08 09:35:01;;;;;;;3.80;2.58;;;;;;;24.92;40.23;99997.38;4345475;32;35691;-80
2022/07/08 09:37:50;;;;;;;6.10;2.50;;;;;;;24.95;42.51;100002.19;4356352;32;34343;-80
2022/07/08 09:40:37;;;;;;;3.37;2.30;;;;;;;24.98;42.53;100000.59;4355107;32;34703;-80
2022/07/08 09:43:24;;;;;;;5.97;2.30;;;;;;;24.49;42.90;100011.31;4345134;32;34488;-79
2022/07/08 09:46:11;;;;;;;3.75;2.45;;;;;;;24.78;41.68;100011.38;4357064;32;35707;-79
2022/07/08 09:49:00;;;;;;;5.18;2.70;;;;;;;24.71;41.87;100000.19;4345138;32;33907;-80
2022/07/08 09:51:48;;;;;;;3.33;2.37;;;;;;;24.29;43.21;100010.03;4340686;32;34764;-79
2022/07/08 09:54:34;;;;;;;4.37;2.70;;;;;;;25.24;42.29;100010.63;4356814;32;34995;-79
2022/07/08 09:57:23;;;;;;;7.57;2.40;;;;;;;25.64;41.06;100002.94;4356154;32;34982;-79
2022/07/08 10:00:10;;;;;;;5.10;2.60;;;;;;;24.58;41.66;100011.75;4339435;32;35061;-80
2022/07/08 10:02:57;;;;;;;4.82;2.72;;;;;;;23.99;43.59;100005.53;4328476;33;35300;-80
2022/07/08 10:05:44;;;;;;;3.92;2.53;;;;;;;23.84;44.20;100015.06;4330713;33;35520;-80
2022/07/08 10:08:31;;;;;;;3.08;2.08;;;;;;;23.98;44.81;100009.53;4339436;33;34911;-80
2022/07/08 10:11:18;;;;;;;4.35;2.40;;;;;;;23.84;44.62;100009.44;4328939;33;34254;-80
2022/07/08 10:14:05;;;;;;;3.20;2.15;;;;;;;23.58;45.72;100020.47;4323886;33;34545;-80
2022/07/08 10:16:52;;;;;;;4.28;2.25;;;;;;;23.90;45.40;100013.47;4338924;33;35013;-80
2022/07/08 10:19:39;;;;;;;3.53;2.17;;;;;;;23.68;44.60;100013.34;4332372;33;34241;-80
2022/07/08 10:22:27;;;;;;;4.25;1.90;;;;;;;24.12;42.56;100009.59;4322976;33;35317;-80
2022/07/08 10:25:13;;;;;;;2.67;2.00;;;;;;;23.81;42.23;100016.63;4328460;33;34250;-79
2022/07/08 10:28:07;;;;;;;3.15;1.87;;;;;;;24.10;42.50;100020.37;4338798;32;35962;-79
2022/07/08 10:30:54;;;;;;;3.12;2.12;;;;;;;24.41;41.23;100015.28;4331633;33;35772;-78
2022/07/08 10:33:45;;;;;;;3.75;1.90;;;;;;;24.80;39.70;100018.19;4318268;33;35226;-79
2022/07/08 10:36:50;;;;;;;3.07;2.23;;;;;;;25.16;39.63;100014.63;4329756;33;34717;-81
2022/07/08 10:39:39;;;;;;;5.37;2.10;;;;;;;25.32;38.65;100012.22;4329594;33;35035;-80
2022/07/08 10:42:25;;;;;;;5.22;2.17;;;;;;;25.42;39.17;100017.03;4325442;33;34824;-79
2022/07/08 10:45:19;;;;;;;3.37;2.20;;;;;;;25.18;38.45;100021.44;4332286;33;35023;-80
2022/07/08 10:48:08;;;;;;;4.18;2.50;;;;;;;25.32;38.38;100017.81;4317577;33;35540;-80
2022/07/08 10:50:55;;;;;;;2.30;2.10;;;;;;;24.94;38.69;100017.41;4332467;33;35726;-79
2022/07/08 10:54:02;;;;;;;5.37;2.05;;;;;;;24.51;38.67;100017.34;4343229;33;34836;-78
2022/07/08 10:56:59;;;;;;;3.28;1.90;;;;;;;25.09;38.31;100015.41;4331871;33;34428;-82
2022/07/08 11:00:07;;;;;;;3.85;1.92;;;;;;;24.62;38.17;100023.78;4335355;33;34808;-79
2022/07/08 11:02:54;;;;;;;4.03;1.90;;;;;;;24.59;39.33;100026.53;4338464;32;34923;-79
2022/07/08 11:05:41;;;;;;;4.32;2.00;;;;;;;24.32;39.53;100034.44;4354419;32;34947;-78
2022/07/08 11:08:28;;;;;;;2.72;1.80;;;;;;;24.55;38.87;100031.34;4341105;32;34995;-79
2022/07/08 11:11:14;;;;;;;3.25;2.00;;;;;;;24.52;39.19;100032.94;4354519;32;34679;-80
2022/07/08 11:14:01;;;;;;;2.35;1.92;;;;;;;24.00;38.89;100021.94;4342844;32;35050;-78
2022/07/08 11:16:47;;;;;;;4.28;2.08;;;;;;;24.90;37.61;100030.59;4343509;32;35398;-77
2022/07/08 11:19:34;;;;;;;6.55;2.30;;;;;;;24.85;38.81;100039.44;4358925;32;33873;-78
2022/07/08 11:22:21;;;;;;;4.90;1.90;;;;;;;24.77;38.63;100038.59;4340353;32;34643;-79
2022/07/08 11:25:16;;;;;;;3.83;2.12;;;;;;;25.19;36.71;100034.28;4352399;32;35002;-78
2022/07/08 11:28:02;;;;;;;3.75;2.03;;;;;;;24.36;37.98;100041.69;4347136;32;34567;-77
2022/07/08 11:30:48;;;;;;;3.72;2.00;;;;;;;25.32;36.24;100034.66;4333113;32;33173;-78
2022/07/08 11:33:39;;;;;;;4.80;1.70;;;;;;;24.99;36.33;100033.00;4353611;32;33745;-78
2022/07/08 11:36:26;;;;;;;3.20;1.90;;;;;;;25.19;36.31;100042.69;4333608;32;34915;-78
2022/07/08 11:39:12;;;;;;;3.17;2.20;;;;;;;24.78;36.36;100045.81;4352119;32;34495;-80
2022/07/08 11:41:58;;;;;;;2.00;1.80;;;;;;;25.03;36.77;100034.63;4355777;32;33981;-80
2022/07/08 11:44:45;;;;;;;2.67;1.90;;;;;;;24.69;36.39;100042.59;4358229;32;34598;-81
2022/07/08 11:47:32;;;;;;;3.47;1.90;;;;;;;25.03;37.16;100040.22;4334404;32;34970;-81
2022/07/08 11:50:18;;;;;;;3.25;2.50;;;;;;;24.91;36.95;100043.44;4336601;32;34785;-77
2022/07/08 11:53:04;;;;;;;3.90;2.12;;;;;;;24.97;37.49;100041.84;4357017;32;33442;-78
2022/07/08 11:55:50;;;;;;;4.10;1.95;;;;;;;25.12;36.65;100049.03;4359750;32;34843;-79
2022/07/08 11:58:38;;;;;;;4.28;2.20;;;;;;;25.21;36.34;100047.88;4359484;32;35042;-79
2022/07/08 12:01:25;;;;;;;3.25;2.25;;;;;;;25.51;35.48;100045.47;4340364;32;36450;-81
2022/07/08 12:04:11;;;;;;;2.37;1.90;;;;;;;25.64;35.06;100045.03;4354343;32;35397;-80
2022/07/08 12:07:00;;;;;;;4.68;2.17;;;;;;;26.01;35.09;100041.75;4343402;32;34516;-79
2022/07/08 12:09:59;;;;;;;6.00;2.42;;;;;;;26.20;33.67;100037.69;4344274;32;34031;-80
2022/07/08 12:12:55;;;;;;;6.60;2.40;;;;;;;26.67;33.79;100043.91;4337443;32;35488;-81
2022/07/08 12:15:42;;;;;;;2.28;2.08;;;;;;;26.57;34.45;100042.72;4346381;32;34037;-80
2022/07/08 12:18:28;;;;;;;7.90;2.60;;;;;;;25.55;35.91;100042.62;4341502;32;34297;-81
2022/07/08 12:21:20;;;;;;;2.95;2.37;;;;;;;25.18;37.10;100051.47;4347710;32;35386;-80
2022/07/08 12:24:14;;;;;;;3.65;2.50;;;;;;;24.96;37.99;100045.03;4351637;32;34423;-79
2022/07/08 12:27:04;;;;;;;3.80;2.65;;;;;;;25.17;37.80;100038.69;4345177;32;34482;-79
2022/07/08 12:29:51;;;;;;;5.87;2.85;;;;;;;24.98;38.29;100042.62;4343135;32;34583;-78
2022/07/08 12:32:43;;;;;;;5.60;2.50;;;;;;;24.56;39.03;100041.34;4348108;32;34453;-78
2022/07/08 12:35:32;;;;;;;4.32;2.50;;;;;;;25.04;38.57;100036.22;4344974;32;35237;-77
2022/07/08 12:38:23;;;;;;;4.10;2.50;;;;;;;24.30;40.27;100039.63;4331442;32;34397;-77
2022/07/08 12:41:18;;;;;;;3.25;2.40;;;;;;;24.45;40.38;100041.34;4342116;32;34583;-76
2022/07/08 12:44:34;;;;;;;2.50;2.20;;;;;;;24.36;39.83;100038.88;4340909;32;33832;-77
2022/07/08 12:47:20;;;;;;;4.93;2.42;;;;;;;24.81;39.16;100039.41;4343565;32;34377;-77
2022/07/08 12:50:07;;;;;;;5.40;2.78;;;;;;;24.80;38.85;100045.41;4346481;32;33472;-77
2022/07/08 12:52:54;;;;;;;5.10;2.30;;;;;;;24.52;39.77;100041.34;4353440;32;34754;-76
2022/07/08 12:55:40;;;;;;;3.25;2.58;;;;;;;24.48;40.29;100037.75;4338884;32;35048;-77
2022/07/08 12:58:27;;;;;;;4.05;2.20;;;;;;;24.28;40.61;100044.81;4347669;32;34890;-76
2022/07/08 13:01:14;;;;;;;4.57;2.45;;;;;;;24.60;40.37;100050.56;4352646;32;34923;-76
2022/07/08 13:04:03;;;;;;;5.18;2.42;;;;;;;24.91;39.85;100049.03;4349844;32;34682;-77
2022/07/08 13:06:52;;;;;;;4.78;2.55;;;;;;;24.78;40.31;100039.41;4349448;32;35101;-76